Time;durP1;ratioP1;P1;durP2;ratioP2;P2;SDS_P1;SDS_P2;PMS_P1;PMS_P2;Temp;Humidity;BMP_temperature;BMP_pressure;BME280_temperature;BME280_humidity;BME280_pressure;Samples;Min_cycle;Max_cycle;Signal;HPM_P1;HPM_P2
2023/04/07 00:01:26;;;;;;;43.63;26.90;;;;;;;7.76;100.00;101377.81;5049413;28;20048;-79
2023/04/07 00:03:52;;;;;;;44.72;27.92;;;;;;;7.75;100.00;101373.50;5052690;28;20024;-82
2023/04/07 00:06:17;;;;;;;42.05;27.70;;;;;;;7.75;100.00;101373.50;5055332;28;20041;-82
2023/04/07 00:08:42;;;;;;;45.45;27.85;;;;;;;7.75;100.00;101386.59;5031268;28;20063;-79
2023/04/07 00:11:08;;;;;;;42.55;27.17;;;;;;;7.76;100.00;101385.66;5065540;28;20033;-79
2023/04/07 00:13:33;;;;;;;43.47;28.25;;;;;;;7.73;100.00;101372.72;5048821;28;20040;-79
2023/04/07 00:15:59;;;;;;;38.85;27.65;;;;;;;7.74;100.00;101379.66;5046329;28;20052;-79
2023/04/07 00:18:24;;;;;;;41.03;27.10;;;;;;;7.72;100.00;101374.50;5042300;28;20033;-79
2023/04/07 00:20:49;;;;;;;37.17;26.63;;;;;;;7.72;100.00;101384.13;5050725;28;20033;-79
2023/04/07 00:23:15;;;;;;;39.92;27.23;;;;;;;7.70;100.00;101380.75;5035455;28;20033;-80
2023/04/07 00:25:40;;;;;;;40.17;27.05;;;;;;;7.68;100.00;101382.59;5031069;28;20029;-80
2023/04/07 00:28:06;;;;;;;42.67;27.33;;;;;;;7.67;100.00;101380.91;5064074;28;20049;-80
2023/04/07 00:30:31;;;;;;;41.55;26.95;;;;;;;7.65;100.00;101393.25;5045646;28;20679;-80
2023/04/07 00:32:56;;;;;;;41.65;26.58;;;;;;;7.65;100.00;101383.63;5049323;28;20068;-80
2023/04/07 00:35:22;;;;;;;41.88;27.27;;;;;;;7.65;100.00;101388.84;5061639;28;20041;-80
2023/04/07 00:37:47;;;;;;;43.13;26.75;;;;;;;7.67;100.00;101380.91;5034280;28;20025;-80
2023/04/07 00:40:12;;;;;;;45.65;27.02;;;;;;;7.64;100.00;101387.16;5027182;28;20053;-80
2023/04/07 00:42:38;;;;;;;37.97;26.92;;;;;;;7.63;100.00;101380.25;5038229;28;20465;-80
2023/04/07 00:45:03;;;;;;;37.33;26.50;;;;;;;7.61;100.00;101384.72;5037429;28;20558;-80
2023/04/07 00:47:29;;;;;;;42.70;28.25;;;;;;;7.59;100.00;101380.44;5034680;28;20029;-80
2023/04/07 00:49:55;;;;;;;38.08;26.35;;;;;;;7.57;100.00;101387.53;5051909;28;20489;-79
2023/04/07 00:52:27;;;;;;;42.10;27.10;;;;;;;7.51;100.00;101375.63;5044753;28;20559;-79
2023/04/07 00:54:54;;;;;;;42.63;27.83;;;;;;;7.49;100.00;101388.78;5051308;28;20025;-80
2023/04/07 00:57:21;;;;;;;40.42;27.98;;;;;;;7.46;100.00;101383.72;5035900;28;20026;-80
2023/04/07 00:59:47;;;;;;;43.63;28.27;;;;;;;7.45;100.00;101382.03;5044723;28;20033;-80
2023/04/07 01:02:17;;;;;;;43.20;28.38;;;;;;;7.43;100.00;101381.28;5027515;28;20470;-80
2023/04/07 01:05:05;;;;;;;48.80;29.42;;;;;;;7.42;100.00;101387.44;5049173;28;20432;-80
2023/04/07 01:07:38;;;;;;;41.35;28.02;;;;;;;7.44;100.00;101387.34;5042050;28;20155;-80
2023/04/07 01:10:05;;;;;;;39.30;28.88;;;;;;;7.46;100.00;101388.97;5032052;28;20076;-80
2023/04/07 01:12:46;;;;;;;40.60;28.67;;;;;;;7.44;100.00;101389.97;5027723;28;20049;-80
2023/04/07 01:15:12;;;;;;;43.10;29.15;;;;;;;7.47;100.00;101392.44;5028199;28;20484;-80
2023/04/07 01:17:44;;;;;;;42.70;28.30;;;;;;;7.46;100.00;101388.97;5030573;28;20033;-80
2023/04/07 01:20:12;;;;;;;42.72;29.92;;;;;;;7.49;100.00;101387.94;5050471;28;20025;-80
2023/04/07 01:23:01;;;;;;;42.80;30.00;;;;;;;7.51;100.00;101394.81;5040394;28;20121;-80
2023/04/07 01:25:50;;;;;;;42.45;30.20;;;;;;;7.53;100.00;101398.19;5041426;28;20116;-79
2023/04/07 01:28:53;;;;;;;41.40;30.30;;;;;;;7.53;100.00;101392.09;5065890;28;20041;-79
2023/04/07 01:31:21;;;;;;;34.78;27.00;;;;;;;7.47;100.00;101395.03;5017363;28;20820;-79
2023/04/07 01:33:49;;;;;;;40.08;27.48;;;;;;;7.44;100.00;101396.06;5029374;28;20104;-79
2023/04/07 01:36:16;;;;;;;35.83;26.17;;;;;;;7.42;100.00;101397.91;5062034;28;20473;-79
2023/04/07 01:38:43;;;;;;;33.08;25.38;;;;;;;7.41;100.00;101390.97;5041527;28;20023;-79
2023/04/07 01:41:09;;;;;;;34.83;24.15;;;;;;;7.40;100.00;101393.69;5046963;28;20053;-79
2023/04/07 01:43:38;;;;;;;32.22;22.63;;;;;;;7.39;100.00;101400.69;5045327;28;20402;-79
2023/04/07 01:46:06;;;;;;;28.83;20.65;;;;;;;7.41;100.00;101411.06;5035923;28;20048;-81
2023/04/07 01:48:34;;;;;;;29.02;19.92;;;;;;;7.39;100.00;101408.53;5027568;28;20040;-79
2023/04/07 01:51:04;;;;;;;26.88;17.95;;;;;;;7.38;100.00;101408.63;5041818;28;20017;-79
2023/04/07 01:53:30;;;;;;;24.38;17.45;;;;;;;7.36;100.00;101410.47;5050223;28;20025;-79
2023/04/07 01:55:55;;;;;;;21.70;16.30;;;;;;;7.36;100.00;101413.94;5066996;28;20424;-79
2023/04/07 01:58:21;;;;;;;22.80;17.52;;;;;;;7.31;100.00;101410.72;5050049;28;20051;-81
2023/04/07 02:00:47;;;;;;;25.00;16.85;;;;;;;7.32;100.00;101422.88;5066523;28;20355;-81
2023/04/07 02:03:26;;;;;;;23.52;16.80;;;;;;;7.37;100.00;101428.72;5049153;28;20112;-81
2023/04/07 02:05:56;;;;;;;23.27;16.85;;;;;;;7.32;100.00;101425.50;5033094;28;20029;-80
2023/04/07 02:08:26;;;;;;;21.42;16.70;;;;;;;7.31;100.00;101421.19;5031692;28;20490;-80
2023/04/07 02:10:55;;;;;;;26.20;17.52;;;;;;;7.31;100.00;101425.56;5030655;28;20078;-80
2023/04/07 02:13:21;;;;;;;24.50;18.67;;;;;;;7.29;100.00;101417.78;5031163;28;20025;-80
2023/04/07 02:15:48;;;;;;;27.48;18.92;;;;;;;7.28;100.00;101421.34;5017643;28;20078;-81
2023/04/07 02:18:15;;;;;;;24.70;18.63;;;;;;;7.29;100.00;101423.03;5030123;28;20021;-80
2023/04/07 02:20:42;;;;;;;25.80;18.10;;;;;;;7.30;100.00;101416.88;5025733;28;20159;-80
2023/04/07 02:23:08;;;;;;;24.67;18.58;;;;;;;7.26;100.00;101423.19;5030357;28;20030;-80
2023/04/07 02:25:36;;;;;;;28.35;20.02;;;;;;;7.27;100.00;101416.19;5027047;28;20043;-80
2023/04/07 02:28:06;;;;;;;28.75;21.05;;;;;;;7.26;100.00;101415.34;5050077;28;20025;-80
2023/04/07 02:30:31;;;;;;;27.27;20.40;;;;;;;7.25;100.00;101418.88;5049387;28;20543;-79
2023/04/07 02:32:57;;;;;;;29.80;21.88;;;;;;;7.26;100.00;101414.50;5032161;28;20025;-80
2023/04/07 02:35:23;;;;;;;30.95;23.48;;;;;;;7.25;100.00;101411.03;5056888;28;20029;-79
2023/04/07 02:37:49;;;;;;;33.13;22.85;;;;;;;7.27;100.00;101408.31;5037120;28;20473;-79
2023/04/07 02:40:15;;;;;;;34.20;24.73;;;;;;;7.23;100.00;101407.66;5043836;28;20080;-80
2023/04/07 02:42:40;;;;;;;31.75;24.05;;;;;;;7.26;100.00;101404.03;5032556;28;20115;-80
2023/04/07 02:45:07;;;;;;;35.22;25.05;;;;;;;7.26;100.00;101407.47;5026619;28;20029;-80
2023/04/07 02:47:33;;;;;;;34.00;24.98;;;;;;;7.23;100.00;101418.13;5031723;28;20024;-80
2023/04/07 02:49:59;;;;;;;34.25;24.60;;;;;;;7.24;100.00;101411.94;5048936;28;20047;-80
2023/04/07 02:52:24;;;;;;;32.70;22.75;;;;;;;7.26;100.00;101417.94;5047873;28;20044;-80
2023/04/07 02:54:50;;;;;;;33.70;22.65;;;;;;;7.25;100.00;101416.25;5043801;28;20068;-80
2023/04/07 02:57:15;;;;;;;32.95;21.00;;;;;;;7.23;100.00;101408.50;5028211;28;20025;-80
2023/04/07 02:59:41;;;;;;;32.58;20.63;;;;;;;7.23;100.00;101412.88;5029384;28;20021;-79
2023/04/07 03:02:07;;;;;;;26.58;19.67;;;;;;;7.19;100.00;101413.94;5028923;28;20515;-79
2023/04/07 03:04:33;;;;;;;25.88;20.05;;;;;;;7.18;100.00;101420.94;5029564;28;20045;-79
2023/04/07 03:06:58;;;;;;;26.23;18.55;;;;;;;7.18;100.00;101420.09;5057127;28;20025;-79
2023/04/07 03:09:23;;;;;;;26.05;18.25;;;;;;;7.21;100.00;101415.56;5033233;28;20443;-81
2023/04/07 03:11:49;;;;;;;25.38;18.70;;;;;;;7.18;100.00;101415.69;5034579;28;20188;-79
2023/04/07 03:14:15;;;;;;;22.55;18.02;;;;;;;7.19;100.00;101417.41;5025389;28;20025;-80
2023/04/07 03:16:40;;;;;;;32.92;19.40;;;;;;;7.20;100.00;101423.47;5035970;28;20032;-79
2023/04/07 03:19:06;;;;;;;27.48;18.38;;;;;;;7.20;100.00;101429.59;5028032;28;20466;-79
2023/04/07 03:21:31;;;;;;;23.77;18.02;;;;;;;7.18;100.00;101426.16;5056977;28;20017;-79
2023/04/07 03:23:57;;;;;;;22.20;18.05;;;;;;;7.18;100.00;101418.31;5010561;28;20065;-79
2023/04/07 03:26:22;;;;;;;25.83;17.67;;;;;;;7.19;100.00;101419.16;5009723;28;20116;-79
2023/04/07 03:28:48;;;;;;;27.92;18.92;;;;;;;7.19;100.00;101421.78;5047571;28;20530;-79
2023/04/07 03:31:13;;;;;;;22.88;17.73;;;;;;;7.16;100.00;101411.47;5064992;28;20180;-79
2023/04/07 03:33:39;;;;;;;26.05;18.27;;;;;;;7.16;100.00;101421.94;5047699;28;20060;-81
2023/04/07 03:36:05;;;;;;;24.17;16.83;;;;;;;7.14;100.00;101413.31;5063922;28;20029;-80
2023/04/07 03:38:30;;;;;;;25.30;17.85;;;;;;;7.14;100.00;101423.78;5047709;28;20061;-80
2023/04/07 03:40:55;;;;;;;21.92;16.73;;;;;;;7.14;100.00;101424.63;5031538;28;20076;-80
2023/04/07 03:43:21;;;;;;;30.77;19.40;;;;;;;7.15;100.00;101420.25;5022062;28;20029;-79
2023/04/07 03:45:47;;;;;;;27.80;18.42;;;;;;;7.14;100.00;101418.56;5028536;28;20478;-79
2023/04/07 03:48:12;;;;;;;29.60;19.85;;;;;;;7.14;100.00;101414.16;5028254;28;20052;-80
2023/04/07 03:50:39;;;;;;;31.65;19.65;;;;;;;7.11;100.00;101416.09;5041596;28;20031;-79
2023/04/07 03:53:04;;;;;;;33.17;20.35;;;;;;;7.10;100.00;101419.63;5049380;28;20021;-79
2023/04/07 03:55:31;;;;;;;29.63;19.92;;;;;;;7.09;100.00;101417.94;5040004;28;20132;-79
2023/04/07 03:57:56;;;;;;;31.85;21.38;;;;;;;7.07;100.00;101427.63;5046287;28;20033;-80
2023/04/07 04:00:22;;;;;;;28.58;21.90;;;;;;;7.03;100.00;101420.88;5028290;28;20026;-80
2023/04/07 04:02:47;;;;;;;30.88;21.58;;;;;;;7.05;100.00;101424.25;5036786;28;20186;-79
2023/04/07 04:05:13;;;;;;;28.27;21.15;;;;;;;7.05;100.00;101434.72;5033131;28;20033;-80
2023/04/07 04:07:39;;;;;;;30.13;20.88;;;;;;;7.06;100.00;101437.25;5049967;28;20056;-80
2023/04/07 04:10:05;;;;;;;31.90;22.27;;;;;;;7.02;100.00;101430.50;5026487;28;20543;-79
2023/04/07 04:12:30;;;;;;;35.95;21.70;;;;;;;7.04;100.00;101430.41;5046220;28;20140;-79
2023/04/07 04:14:56;;;;;;;29.83;21.02;;;;;;;7.02;100.00;101424.41;5063543;28;20108;-79
2023/04/07 04:17:21;;;;;;;32.33;21.08;;;;;;;7.01;100.00;101417.47;5021265;28;20188;-79
2023/04/07 04:19:47;;;;;;;32.97;21.23;;;;;;;7.01;100.00;101426.19;5046205;28;20060;-79
2023/04/07 04:22:12;;;;;;;36.75;21.73;;;;;;;6.97;100.00;101422.03;5042552;28;20048;-79
2023/04/07 04:24:38;;;;;;;36.53;21.10;;;;;;;6.89;100.00;101427.63;5053969;28;20025;-79
2023/04/07 04:27:03;;;;;;;33.60;20.33;;;;;;;6.86;100.00;101432.19;5034201;28;20056;-80
2023/04/07 04:29:28;;;;;;;30.90;19.50;;;;;;;6.81;100.00;101421.94;5029455;28;20112;-79
2023/04/07 04:31:54;;;;;;;31.70;19.67;;;;;;;6.82;100.00;101430.63;5022507;28;20452;-79
2023/04/07 04:34:19;;;;;;;31.00;19.25;;;;;;;6.83;100.00;101430.56;5026010;28;20128;-79
2023/04/07 04:36:48;;;;;;;33.30;20.40;;;;;;;6.77;100.00;101433.44;5034125;28;20541;-79
2023/04/07 04:39:13;;;;;;;30.45;19.70;;;;;;;6.77;100.00;101424.75;5042922;28;20028;-79
2023/04/07 04:41:38;;;;;;;35.38;20.20;;;;;;;6.77;100.00;101441.28;5048546;28;20094;-79
2023/04/07 04:44:04;;;;;;;29.60;19.75;;;;;;;6.78;100.00;101436.91;5029213;28;20030;-79
2023/04/07 04:46:30;;;;;;;36.65;20.27;;;;;;;6.77;100.00;101454.38;5027144;28;20021;-79
2023/04/07 04:48:56;;;;;;;36.75;20.77;;;;;;;6.76;100.00;101449.22;5041183;28;20040;-79
2023/04/07 04:51:22;;;;;;;39.80;20.65;;;;;;;6.74;100.00;101444.06;5031285;28;20044;-79
2023/04/07 04:53:48;;;;;;;33.95;19.65;;;;;;;6.74;100.00;101451.91;5033107;28;20025;-79
2023/04/07 04:56:13;;;;;;;33.85;19.45;;;;;;;6.77;100.00;101451.75;5043172;28;20029;-79
2023/04/07 04:58:40;;;;;;;35.50;20.42;;;;;;;6.72;100.00;101453.75;5051870;28;20024;-79
2023/04/07 05:01:06;;;;;;;34.38;19.77;;;;;;;6.72;100.00;101458.97;5030145;28;20025;-78
2023/04/07 05:03:31;;;;;;;35.88;20.05;;;;;;;6.77;100.00;101467.44;5042979;28;20025;-81
2023/04/07 05:05:57;;;;;;;33.40;19.13;;;;;;;6.75;100.00;101464.06;5043953;28;20059;-80
2023/04/07 05:08:22;;;;;;;38.45;19.70;;;;;;;6.80;100.00;101461.22;5035513;28;20080;-80
2023/04/07 05:10:48;;;;;;;34.05;20.15;;;;;;;6.79;100.00;101470.84;5033130;28;20636;-80
2023/04/07 05:13:13;;;;;;;34.65;18.88;;;;;;;6.81;100.00;101470.78;5061561;28;20120;-80
2023/04/07 05:15:41;;;;;;;40.58;20.98;;;;;;;6.79;100.00;101476.06;5030202;28;20022;-80
2023/04/07 05:18:06;;;;;;;34.53;19.88;;;;;;;6.76;100.00;101481.44;5031553;28;20101;-80
2023/04/07 05:20:31;;;;;;;35.60;20.40;;;;;;;6.77;100.00;101483.13;5022693;28;20559;-80
2023/04/07 05:22:57;;;;;;;34.85;20.88;;;;;;;6.80;100.00;101487.38;5032648;28;20550;-80
2023/04/07 05:25:22;;;;;;;37.03;20.20;;;;;;;6.78;100.00;101483.97;5050198;28;20029;-80
2023/04/07 05:27:48;;;;;;;39.55;21.38;;;;;;;6.77;100.00;101488.38;5031130;28;20021;-80
2023/04/07 05:30:14;;;;;;;39.25;21.63;;;;;;;6.81;100.00;101483.88;5031273;28;20031;-80
2023/04/07 05:32:39;;;;;;;39.78;22.10;;;;;;;6.77;100.00;101488.38;5029461;28;20024;-80
2023/04/07 05:35:05;;;;;;;37.58;22.02;;;;;;;6.78;100.00;101490.06;5031775;28;20036;-80
2023/04/07 05:37:30;;;;;;;36.88;21.85;;;;;;;6.78;100.00;101495.28;5050855;28;20500;-80
2023/04/07 05:39:56;;;;;;;39.20;23.10;;;;;;;6.78;100.00;101494.44;5029745;28;20159;-80
2023/04/07 05:42:21;;;;;;;36.83;23.17;;;;;;;6.82;100.00;101496.03;5035096;28;20045;-80
2023/04/07 05:44:47;;;;;;;39.55;22.67;;;;;;;6.83;100.00;101495.09;5063773;28;20449;-80
2023/04/07 05:47:12;;;;;;;37.58;23.30;;;;;;;6.82;100.00;101496.88;5030910;28;20547;-80
2023/04/07 05:49:44;;;;;;;43.40;23.27;;;;;;;6.79;100.00;101493.53;5031007;28;20021;-80
2023/04/07 05:52:10;;;;;;;42.75;25.52;;;;;;;6.83;100.00;101495.94;5049301;28;20076;-80
2023/04/07 05:54:35;;;;;;;41.75;24.20;;;;;;;6.84;100.00;101488.94;5043597;28;21149;-80
2023/04/07 05:57:01;;;;;;;38.47;25.25;;;;;;;6.86;100.00;101490.56;5066012;28;20033;-80
2023/04/07 05:59:26;;;;;;;38.63;24.77;;;;;;;6.87;100.00;101487.03;5051361;28;20510;-80
2023/04/07 06:01:51;;;;;;;39.80;25.17;;;;;;;6.88;100.00;101495.72;5032949;28;20108;-80
2023/04/07 06:04:17;;;;;;;39.90;25.35;;;;;;;6.85;100.00;101496.72;5028959;28;20025;-80
2023/04/07 06:06:42;;;;;;;41.75;25.83;;;;;;;6.89;100.00;101498.28;5029148;28;20044;-80
2023/04/07 06:09:08;;;;;;;45.33;27.27;;;;;;;6.90;100.00;101504.34;5041163;28;20095;-81
2023/04/07 06:11:33;;;;;;;43.20;26.30;;;;;;;6.93;100.00;101503.34;5048603;28;20104;-81
2023/04/07 06:13:58;;;;;;;47.30;27.27;;;;;;;6.97;100.00;101505.75;5031727;28;20036;-81
2023/04/07 06:16:24;;;;;;;45.13;27.65;;;;;;;6.99;100.00;101509.13;5062474;28;20091;-81
2023/04/07 06:18:49;;;;;;;42.05;26.38;;;;;;;6.99;100.00;101509.13;5041969;28;20098;-81
2023/04/07 06:21:15;;;;;;;47.60;27.67;;;;;;;7.02;100.00;101522.06;5039874;28;20037;-81
2023/04/07 06:23:40;;;;;;;44.17;27.13;;;;;;;7.02;100.00;101519.44;5030638;28;20057;-81
2023/04/07 06:26:10;;;;;;;43.70;26.23;;;;;;;7.10;100.00;101524.28;5030202;28;20541;-81
2023/04/07 06:28:36;;;;;;;37.00;26.55;;;;;;;7.09;100.00;101512.13;5034777;28;20035;-81
2023/04/07 06:31:01;;;;;;;39.63;25.98;;;;;;;7.13;100.00;101519.75;5065153;28;20017;-80
2023/04/07 06:33:27;;;;;;;38.00;26.33;;;;;;;7.19;100.00;101521.22;5049357;28;20381;-79
2023/04/07 06:35:52;;;;;;;38.13;26.50;;;;;;;7.19;100.00;101524.69;5050864;28;20036;-79
2023/04/07 06:38:18;;;;;;;39.33;26.42;;;;;;;7.27;100.00;101520.88;5042736;28;20443;-81
2023/04/07 06:40:44;;;;;;;45.53;27.58;;;;;;;7.31;100.00;101531.13;5010137;28;20046;-81
2023/04/07 06:43:09;;;;;;;39.28;26.45;;;;;;;7.39;100.00;101528.09;5053711;28;20033;-81
2023/04/07 06:45:34;;;;;;;39.22;25.83;;;;;;;7.43;100.00;101529.66;5028933;28;20032;-79
2023/04/07 06:48:00;;;;;;;36.88;25.90;;;;;;;7.47;100.00;101532.03;5046746;28;20115;-81
2023/04/07 06:50:25;;;;;;;35.67;25.70;;;;;;;7.58;100.00;101533.25;5055410;28;20401;-79
2023/04/07 06:52:50;;;;;;;36.20;25.20;;;;;;;7.66;100.00;101537.22;5029855;28;20044;-81
2023/04/07 06:55:16;;;;;;;38.17;25.27;;;;;;;7.72;100.00;101528.19;5028777;28;20025;-79
2023/04/07 06:57:41;;;;;;;30.85;23.13;;;;;;;7.75;100.00;101533.28;5018992;28;20033;-81
2023/04/07 07:00:07;;;;;;;34.67;22.90;;;;;;;7.84;100.00;101541.50;5058839;28;20029;-80
2023/04/07 07:02:33;;;;;;;29.17;18.80;;;;;;;7.82;100.00;101545.13;5026991;28;20022;-79
2023/04/07 07:05:05;;;;;;;25.90;18.83;;;;;;;7.88;100.00;101542.19;5030479;28;20029;-79
2023/04/07 07:07:31;;;;;;;29.73;19.33;;;;;;;7.93;100.00;101550.66;5029415;28;20028;-80
2023/04/07 07:09:56;;;;;;;29.52;20.13;;;;;;;8.03;100.00;101548.44;5030457;28;20033;-78
2023/04/07 07:12:21;;;;;;;34.33;20.13;;;;;;;8.05;100.00;101551.81;5024701;28;20731;-80
2023/04/07 07:14:47;;;;;;;28.58;18.75;;;;;;;8.07;100.00;101557.81;5025684;28;20027;-81
2023/04/07 07:17:13;;;;;;;30.27;18.90;;;;;;;8.11;100.00;101549.72;5060432;28;20032;-81
2023/04/07 07:19:38;;;;;;;25.65;18.25;;;;;;;8.17;100.00;101548.53;5030139;28;20026;-81
2023/04/07 07:22:04;;;;;;;26.40;17.35;;;;;;;8.23;100.00;101552.59;5023671;28;20605;-81
2023/04/07 07:24:32;;;;;;;24.10;15.88;;;;;;;8.26;100.00;101557.69;5028419;28;20025;-84
2023/04/07 07:26:58;;;;;;;25.05;16.63;;;;;;;8.21;100.00;101557.09;5029446;28;20516;-82
2023/04/07 07:29:24;;;;;;;27.00;16.10;;;;;;;8.25;100.00;101558.63;5020226;28;20017;-81
2023/04/07 07:31:49;;;;;;;22.05;15.35;;;;;;;8.32;100.00;101558.19;5051186;28;20010;-83
2023/04/07 07:34:15;;;;;;;24.92;15.65;;;;;;;8.47;100.00;101556.59;5025252;28;20036;-80
2023/04/07 07:36:40;;;;;;;24.38;14.75;;;;;;;8.57;100.00;101563.03;5023464;28;20022;-80
2023/04/07 07:39:06;;;;;;;18.55;12.23;;;;;;;8.70;100.00;101568.44;5037717;28;20104;-80
2023/04/07 07:41:31;;;;;;;17.17;10.45;;;;;;;8.82;100.00;101567.78;5022215;28;20132;-80
2023/04/07 07:43:57;;;;;;;17.02;9.85;;;;;;;8.83;100.00;101574.72;5030077;28;20021;-80
2023/04/07 07:46:24;;;;;;;15.95;9.48;;;;;;;8.84;100.00;101586.06;5048160;28;20025;-80
2023/04/07 07:48:50;;;;;;;11.45;8.48;;;;;;;8.77;100.00;101581.13;5029258;28;20029;-80
2023/04/07 07:51:17;;;;;;;18.33;8.75;;;;;;;8.78;100.00;101585.44;5027910;28;20028;-80
2023/04/07 07:53:42;;;;;;;14.40;7.88;;;;;;;8.77;100.00;101591.63;5026404;28;20057;-80
2023/04/07 07:56:08;;;;;;;11.73;7.82;;;;;;;8.79;100.00;101584.53;5026955;28;20474;-80
2023/04/07 07:58:33;;;;;;;14.68;6.28;;;;;;;8.73;100.00;101591.88;5018363;28;20021;-80
2023/04/07 08:01:02;;;;;;;11.15;5.72;;;;;;;8.77;100.00;101585.53;5058158;28;20030;-80
2023/04/07 08:03:28;;;;;;;13.32;6.03;;;;;;;8.79;100.00;101584.53;5022526;28;20091;-80
2023/04/07 08:05:53;;;;;;;12.90;6.43;;;;;;;8.90;100.00;101586.59;5039700;28;20033;-80
2023/04/07 08:08:18;;;;;;;11.27;6.75;;;;;;;8.97;100.00;101597.59;5027562;28;20479;-80
2023/04/07 08:10:44;;;;;;;11.73;6.47;;;;;;;9.03;100.00;101602.50;5041181;28;20021;-80
2023/04/07 08:13:09;;;;;;;14.52;6.63;;;;;;;9.17;100.00;101597.31;5026404;28;20029;-80
2023/04/07 08:15:35;;;;;;;13.60;6.40;;;;;;;9.33;100.00;101600.78;5034210;28;20120;-80
2023/04/07 08:18:03;;;;;;;14.05;6.50;;;;;;;9.50;100.00;101607.69;5042121;28;20040;-81
2023/04/07 08:20:30;;;;;;;10.40;5.18;;;;;;;9.51;100.00;101612.00;5036125;28;20083;-79
2023/04/07 08:22:55;;;;;;;11.65;5.20;;;;;;;9.56;100.00;101602.06;5038723;28;20036;-77
2023/04/07 08:25:21;;;;;;;8.82;4.90;;;;;;;9.56;100.00;101606.50;5053170;28;20018;-82
2023/04/07 08:27:46;;;;;;;10.77;5.30;;;;;;;9.69;100.00;101607.50;5030945;28;20126;-81
2023/04/07 08:30:12;;;;;;;8.90;4.78;;;;;;;9.72;100.00;101612.56;5027814;28;20033;-81
2023/04/07 08:32:43;;;;;;;9.93;4.88;;;;;;;9.73;100.00;101614.25;5052386;28;20044;-81
2023/04/07 08:35:09;;;;;;;14.13;4.45;;;;;;;9.67;100.00;101614.63;5042074;28;20037;-81
2023/04/07 08:37:35;;;;;;;10.73;3.80;;;;;;;9.49;100.00;101624.38;5030588;28;20750;-85
2023/04/07 08:40:02;;;;;;;8.75;3.00;;;;;;;9.37;100.00;101625.09;5048262;28;20037;-79
2023/04/07 08:42:30;;;;;;;9.55;2.85;;;;;;;9.29;100.00;101629.94;5027562;28;20043;-78
2023/04/07 08:45:01;;;;;;;11.95;3.22;;;;;;;9.19;100.00;101629.56;5028942;28;20071;-79
2023/04/07 08:47:29;;;;;;;8.13;2.55;;;;;;;9.18;100.00;101632.28;5035475;28;20030;-78
2023/04/07 08:50:02;;;;;;;6.20;2.50;;;;;;;9.20;100.00;101641.75;5033383;28;20022;-78
2023/04/07 08:52:40;;;;;;;7.80;2.38;;;;;;;9.15;100.00;101638.56;5040067;28;20541;-78
2023/04/07 08:55:07;;;;;;;7.78;2.60;;;;;;;9.11;100.00;101637.03;5030911;28;20386;-77
2023/04/07 08:57:33;;;;;;;8.18;2.90;;;;;;;9.11;100.00;101647.53;5030357;28;20025;-77
2023/04/07 09:00:05;;;;;;;8.77;2.90;;;;;;;9.17;100.00;101641.94;5031425;28;20048;-80
2023/04/07 09:02:36;;;;;;;8.45;3.15;;;;;;;9.29;100.00;101643.06;5025019;28;20065;-78
2023/04/07 09:05:04;;;;;;;9.25;2.75;;;;;;;9.43;100.00;101643.13;5031962;28;20022;-80
2023/04/07 09:07:33;;;;;;;10.13;3.28;;;;;;;9.50;100.00;101651.50;5030452;28;20113;-78
2023/04/07 09:09:59;;;;;;;7.22;2.70;;;;;;;9.61;100.00;101657.00;5025287;28;20009;-78
2023/04/07 09:12:26;;;;;;;8.38;2.72;;;;;;;9.68;100.00;101650.47;5033522;28;20433;-78
2023/04/07 09:14:52;;;;;;;4.20;2.40;;;;;;;9.68;100.00;101648.69;5013758;28;20475;-78
2023/04/07 09:17:17;;;;;;;8.48;2.80;;;;;;;9.73;99.25;101656.31;5043611;28;20128;-78
2023/04/07 09:19:43;;;;;;;9.10;3.10;;;;;;;9.75;100.00;101654.44;5049110;28;21298;-78
2023/04/07 09:22:11;;;;;;;5.88;2.85;;;;;;;9.76;100.00;101650.88;5044493;28;20082;-78
2023/04/07 09:24:36;;;;;;;8.02;3.08;;;;;;;9.78;100.00;101659.50;5043322;28;20036;-78
2023/04/07 09:27:13;;;;;;;9.05;3.22;;;;;;;9.92;100.00;101662.19;5051062;28;20021;-78
2023/04/07 09:29:40;;;;;;;7.28;2.72;;;;;;;9.90;100.00;101648.28;5066532;28;20029;-78
2023/04/07 09:32:06;;;;;;;9.20;2.80;;;;;;;9.89;96.87;101659.72;5066708;28;20418;-78
2023/04/07 09:34:34;;;;;;;7.63;2.63;;;;;;;9.98;98.82;101661.81;5063745;28;20052;-78
2023/04/07 09:37:01;;;;;;;6.75;2.58;;;;;;;10.23;98.38;101660.41;5033458;28;20032;-78
2023/04/07 09:39:27;;;;;;;9.93;2.97;;;;;;;10.23;98.33;101658.63;5046521;28;20492;-78
2023/04/07 09:41:52;;;;;;;8.48;2.50;;;;;;;10.28;97.07;101661.00;5028156;28;20046;-79
2023/04/07 09:44:21;;;;;;;7.05;2.70;;;;;;;10.39;96.11;101655.06;5043115;28;20028;-77
2023/04/07 09:46:57;;;;;;;7.70;2.70;;;;;;;10.50;98.01;101653.50;5042693;28;20036;-79
2023/04/07 09:49:24;;;;;;;7.35;2.60;;;;;;;10.52;94.28;101651.63;5033272;28;20026;-78
2023/04/07 09:51:58;;;;;;;7.80;2.97;;;;;;;10.56;98.02;101650.50;5044452;28;20029;-78
2023/04/07 09:54:39;;;;;;;9.75;3.05;;;;;;;10.57;96.78;101648.72;5030042;28;20034;-78
2023/04/07 09:57:09;;;;;;;7.78;2.90;;;;;;;10.47;95.42;101653.69;5030928;28;20025;-77
2023/04/07 09:59:37;;;;;;;9.98;2.60;;;;;;;10.48;97.14;101659.81;5031499;28;20029;-79
2023/04/07 10:02:03;;;;;;;11.65;3.20;;;;;;;10.31;96.37;101663.44;5030454;28;20021;-78
2023/04/07 10:04:31;;;;;;;14.25;3.05;;;;;;;10.25;97.70;101658.53;5030136;28;20478;-79
2023/04/07 10:06:59;;;;;;;14.00;3.35;;;;;;;10.12;99.30;101662.81;5023839;28;20030;-78
2023/04/07 10:09:28;;;;;;;17.80;3.33;;;;;;;10.06;99.06;101664.03;5032090;28;20198;-78
2023/04/07 10:11:56;;;;;;;15.30;3.50;;;;;;;9.98;99.01;101664.44;5030887;28;20489;-78
2023/04/07 10:14:26;;;;;;;13.73;3.33;;;;;;;9.96;97.55;101668.94;5031778;28;20135;-78
2023/04/07 10:16:53;;;;;;;9.85;3.55;;;;;;;9.95;97.29;101669.88;5035381;28;20374;-78
2023/04/07 10:19:18;;;;;;;14.40;3.55;;;;;;;9.99;97.67;101674.03;5053534;28;20032;-78
2023/04/07 10:21:45;;;;;;;13.25;3.22;;;;;;;9.95;99.34;101677.78;5026009;28;20030;-78
2023/04/07 10:24:30;;;;;;;12.02;2.90;;;;;;;10.05;97.91;101684.22;5029808;28;20037;-78
2023/04/07 10:27:04;;;;;;;9.38;2.83;;;;;;;9.88;95.85;101686.94;5045485;28;20147;-78
2023/04/07 10:29:41;;;;;;;10.88;3.20;;;;;;;10.05;97.20;101684.22;5029890;28;20113;-78
2023/04/07 10:32:07;;;;;;;12.00;3.00;;;;;;;10.04;95.92;101695.66;5040097;28;20030;-78
2023/04/07 10:34:52;;;;;;;8.50;2.65;;;;;;;10.23;97.35;101686.72;5028052;28;20583;-78
2023/04/07 10:37:20;;;;;;;12.13;3.10;;;;;;;10.27;97.02;101693.50;5017061;28;20044;-78
2023/04/07 10:39:50;;;;;;;9.95;2.70;;;;;;;10.34;97.18;101694.81;5027777;28;20083;-78
2023/04/07 10:42:40;;;;;;;7.47;2.60;;;;;;;10.60;95.22;101699.38;5032023;28;20371;-77
2023/04/07 10:45:07;;;;;;;8.77;2.75;;;;;;;10.65;93.08;101693.81;5029711;28;20029;-78
2023/04/07 10:47:33;;;;;;;11.30;3.00;;;;;;;10.59;91.20;101699.47;5041298;28;20021;-78
2023/04/07 10:50:28;;;;;;;10.00;3.20;;;;;;;10.59;93.51;101705.56;5034980;28;20490;-78
2023/04/07 10:53:11;;;;;;;11.60;3.00;;;;;;;10.29;93.96;101702.13;5017907;28;20397;-78
2023/04/07 10:55:40;;;;;;;;;;;;;;;10.46;95.74;101704.63;5022520;28;20025;-79
2023/04/07 10:58:22;;;;;;;12.68;3.15;;;;;;;10.28;93.57;101705.69;5028969;28;20324;-80
2023/04/07 11:00:56;;;;;;;13.77;3.67;;;;;;;10.27;92.66;101709.28;5031540;28;20033;-79
2023/04/07 11:03:22;;;;;;;12.80;2.70;;;;;;;10.23;91.47;101708.59;5044889;28;20025;-79
2023/04/07 11:05:48;;;;;;;6.75;2.30;;;;;;;10.32;92.43;101707.22;5029544;28;20049;-78
2023/04/07 11:08:13;;;;;;;10.35;2.90;;;;;;;10.39;91.13;101705.06;5027933;28;20506;-81
2023/04/07 11:10:39;;;;;;;13.02;2.65;;;;;;;10.48;89.90;101702.75;5021356;28;20061;-79
2023/04/07 11:13:07;;;;;;;7.85;2.40;;;;;;;10.62;88.73;101700.13;5019194;28;20359;-78
2023/04/07 11:15:35;;;;;;;6.65;2.30;;;;;;;10.79;90.61;101706.13;5029210;28;20417;-79